Ohshima Kazumaru — JD2908 — position and weather

sailwx.info

Track history (hours):
 
Tides and Currents Weather Stations Pressure Air Temp Water Temp Dewpoint Dewpoint Depression Visibility Wind Speed Wind Dir Waves Ship Positions

Ohshima Kazumaru

Last reported at 2017-Oct-07 12:45 UTC. Time now 2017-Oct-18 01:49 UTC.
Position N 34°48' E 139°10'.
Warning: this ship's position is 10 days out of date.

Length 69 m; draft 4 m.

Type: Cargo ship. MMSI: 431000925.

Date/timePositionNaut miles runAvg speedWind from/ knotsBaromVisibWave heightAir tempDewpointWater temp
2017-Oct-07 12:45N 34°48' E 139°10'2012.4
2017-Oct-07 11:08N 35°00' E 139°29'211.6
2017-Oct-07 10:59N 35°01' E 139°31'611.5
2017-Oct-07 10:30N 35°04' E 139°36'611.9
2017-Oct-07 10:00N 35°08' E 139°42'612.5
2017-Oct-07 09:30N 35°13' E 139°46'611.6
2017-Oct-07 09:01N 35°19' E 139°44'611.6
2017-Oct-07 08:31N 35°24' E 139°43'612.0
2017-Oct-07 08:01N 35°29' E 139°48'0 0.2
2017-Oct-07 07:30N 35°29' E 139°48'0 0.0
2017-Oct-07 07:00N 35°29' E 139°48'0 0.0
2017-Oct-07 06:30N 35°29' E 139°48'0 0.1
2017-Oct-07 05:58N 35°29' E 139°48'0 0.0
2017-Oct-07 05:28N 35°29' E 139°48'0 0.0
2017-Oct-07 04:56N 35°29' E 139°48'0 0.0
2017-Oct-07 04:29N 35°29' E 139°48'0 0.0
2017-Oct-07 04:00N 35°29' E 139°48'0 0.0
2017-Oct-07 03:23N 35°29' E 139°48'0 0.0
2017-Oct-07 02:59N 35°29' E 139°48'0 0.0
2017-Oct-07 02:22N 35°29' E 139°48'0 0.0
2017-Oct-07 01:54N 35°29' E 139°48'0 0.0
2017-Oct-07 01:20N 35°29' E 139°48'0 0.0
2017-Oct-07 00:35N 35°29' E 139°48'0 0.0
2017-Oct-06 21:26N 35°29' E 139°48'0 0.0
2017-Oct-06 14:23N 35°29' E 139°48'0 0.0
2017-Oct-06 11:26N 35°29' E 139°48'0 0.0
2017-Oct-06 10:14N 35°29' E 139°48'0 0.0
2017-Oct-05 19:14N 35°29' E 139°48'0 0.0
2017-Oct-05 17:29N 35°29' E 139°48'0 0.0
2017-Oct-05 14:20N 35°29' E 139°48'0 0.0
2017-Oct-05 10:56N 35°29' E 139°48'0 0.0
2017-Oct-05 09:26N 35°29' E 139°48'2 3.7
2017-Oct-05 09:01N 35°31' E 139°48'1 0.4
2017-Oct-05 05:32N 35°32' E 139°47'0 1.1
2017-Oct-05 05:30N 35°32' E 139°47'1 2.2
2017-Oct-05 05:01N 35°31' E 139°48'1 1.8
2017-Oct-05 04:28N 35°31' E 139°49'0 0.0
2017-Oct-05 04:00N 35°31' E 139°49'0 0.0
2017-Oct-05 03:22N 35°31' E 139°49'0 0.0
2017-Oct-05 02:56N 35°31' E 139°49'0 0.0
2017-Oct-05 02:31N 35°31' E 139°49'0 0.0
2017-Oct-05 01:59N 35°31' E 139°49'0 0.0
2017-Oct-05 01:31N 35°31' E 139°49'0 0.0
2017-Oct-05 01:00N 35°31' E 139°49'0 0.0
2017-Oct-05 00:30N 35°31' E 139°49'0 0.0
2017-Oct-05 00:01N 35°31' E 139°49'0 0.0
2017-Oct-04 23:27N 35°31' E 139°49'0 0.0
2017-Oct-04 22:54N 35°31' E 139°49'0 0.0
2017-Oct-04 22:30N 35°31' E 139°49'0 0.0
2017-Oct-04 22:00N 35°31' E 139°49'0 0.0
2017-Oct-04 21:30N 35°31' E 139°49'0 0.0
2017-Oct-04 21:00N 35°31' E 139°49'0 0.0
2017-Oct-04 20:30N 35°31' E 139°49'0 0.0
2017-Oct-04 20:01N 35°31' E 139°49'0 0.0
2017-Oct-04 19:26N 35°31' E 139°49'0 0.0
2017-Oct-04 19:01N 35°31' E 139°49'0 0.0
2017-Oct-04 18:30N 35°31' E 139°49'0 0.1
2017-Oct-04 17:40N 35°31' E 139°49'0 0.0
2017-Oct-04 17:30N 35°31' E 139°49'5 8.4
2017-Oct-04 16:58N 35°26' E 139°47'612.4
2017-Oct-04 16:31N 35°21' E 139°45'611.9
2017-Oct-04 16:00N 35°15' E 139°47'612.1
2017-Oct-04 15:30N 35°09' E 139°46'611.2
2017-Oct-04 15:00N 35°04' E 139°43'612.0
2017-Oct-04 14:30N 35°01' E 139°37'612.2
2017-Oct-04 14:00N 34°57' E 139°31'  
Track history (hours):
 
Tides and Currents Weather Stations Pressure Air Temp Water Temp Dewpoint Dewpoint Depression Visibility Wind Speed Wind Dir Waves Ship Positions

Ohshima Kazumaru

Last reported at 2017-Oct-07 12:45 UTC. Time now 2017-Oct-18 01:49 UTC.
Position N 34°48' E 139°10'.
Warning: this ship's position is 10 days out of date.

Length 69 m; draft 4 m.

Type: Cargo ship. MMSI: 431000925.

Date/timePositionNaut miles runAvg speedWind from/ knotsBaromVisibWave heightAir tempDewpointWater temp
2017-Oct-07 12:45N 34°48' E 139°10'2012.4
2017-Oct-07 11:08N 35°00' E 139°29'211.6
2017-Oct-07 10:59N 35°01' E 139°31'611.5
2017-Oct-07 10:30N 35°04' E 139°36'611.9
2017-Oct-07 10:00N 35°08' E 139°42'612.5
2017-Oct-07 09:30N 35°13' E 139°46'611.6
2017-Oct-07 09:01N 35°19' E 139°44'611.6
2017-Oct-07 08:31N 35°24' E 139°43'612.0
2017-Oct-07 08:01N 35°29' E 139°48'0 0.2
2017-Oct-07 07:30N 35°29' E 139°48'0 0.0
2017-Oct-07 07:00N 35°29' E 139°48'0 0.0
2017-Oct-07 06:30N 35°29' E 139°48'0 0.1
2017-Oct-07 05:58N 35°29' E 139°48'0 0.0
2017-Oct-07 05:28N 35°29' E 139°48'0 0.0
2017-Oct-07 04:56N 35°29' E 139°48'0 0.0
2017-Oct-07 04:29N 35°29' E 139°48'0 0.0
2017-Oct-07 04:00N 35°29' E 139°48'0 0.0
2017-Oct-07 03:23N 35°29' E 139°48'0 0.0
2017-Oct-07 02:59N 35°29' E 139°48'0 0.0
2017-Oct-07 02:22N 35°29' E 139°48'0 0.0
2017-Oct-07 01:54N 35°29' E 139°48'0 0.0
2017-Oct-07 01:20N 35°29' E 139°48'0 0.0
2017-Oct-07 00:35N 35°29' E 139°48'0 0.0
2017-Oct-06 21:26N 35°29' E 139°48'0 0.0
2017-Oct-06 14:23N 35°29' E 139°48'0 0.0
2017-Oct-06 11:26N 35°29' E 139°48'0 0.0
2017-Oct-06 10:14N 35°29' E 139°48'0 0.0
2017-Oct-05 19:14N 35°29' E 139°48'0 0.0
2017-Oct-05 17:29N 35°29' E 139°48'0 0.0
2017-Oct-05 14:20N 35°29' E 139°48'0 0.0
2017-Oct-05 10:56N 35°29' E 139°48'0 0.0
2017-Oct-05 09:26N 35°29' E 139°48'2 3.7
2017-Oct-05 09:01N 35°31' E 139°48'1 0.4
2017-Oct-05 05:32N 35°32' E 139°47'0 1.1
2017-Oct-05 05:30N 35°32' E 139°47'1 2.2
2017-Oct-05 05:01N 35°31' E 139°48'1 1.8
2017-Oct-05 04:28N 35°31' E 139°49'0 0.0
2017-Oct-05 04:00N 35°31' E 139°49'0 0.0
2017-Oct-05 03:22N 35°31' E 139°49'0 0.0
2017-Oct-05 02:56N 35°31' E 139°49'0 0.0
2017-Oct-05 02:31N 35°31' E 139°49'0 0.0
2017-Oct-05 01:59N 35°31' E 139°49'0 0.0
2017-Oct-05 01:31N 35°31' E 139°49'0 0.0
2017-Oct-05 01:00N 35°31' E 139°49'0 0.0
2017-Oct-05 00:30N 35°31' E 139°49'0 0.0
2017-Oct-05 00:01N 35°31' E 139°49'0 0.0
2017-Oct-04 23:27N 35°31' E 139°49'0 0.0
2017-Oct-04 22:54N 35°31' E 139°49'0 0.0
2017-Oct-04 22:30N 35°31' E 139°49'0 0.0
2017-Oct-04 22:00N 35°31' E 139°49'0 0.0
2017-Oct-04 21:30N 35°31' E 139°49'0 0.0
2017-Oct-04 21:00N 35°31' E 139°49'0 0.0
2017-Oct-04 20:30N 35°31' E 139°49'0 0.0
2017-Oct-04 20:01N 35°31' E 139°49'0 0.0
2017-Oct-04 19:26N 35°31' E 139°49'0 0.0
2017-Oct-04 19:01N 35°31' E 139°49'0 0.0
2017-Oct-04 18:30N 35°31' E 139°49'0 0.1
2017-Oct-04 17:40N 35°31' E 139°49'0 0.0
2017-Oct-04 17:30N 35°31' E 139°49'5 8.4
2017-Oct-04 16:58N 35°26' E 139°47'612.4
2017-Oct-04 16:31N 35°21' E 139°45'611.9
2017-Oct-04 16:00N 35°15' E 139°47'612.1
2017-Oct-04 15:30N 35°09' E 139°46'611.2
2017-Oct-04 15:00N 35°04' E 139°43'612.0
2017-Oct-04 14:30N 35°01' E 139°37'612.2
2017-Oct-04 14:00N 34°57' E 139°31'  

Dump ship's entire track history